createdAt,value
2022-09-21T00:08:21.128Z,7.1
2022-09-21T00:18:23.517Z,6.9
2022-09-21T00:28:25.448Z,6.9
2022-09-21T00:38:27.275Z,6.8
2022-09-21T00:58:31.212Z,6.6
2022-09-21T01:18:35.008Z,6.4
2022-09-21T01:38:39.397Z,6.2
2022-09-21T01:48:41.178Z,6
2022-09-21T01:58:43.644Z,6
2022-09-21T02:18:48.487Z,5.8
2022-09-21T02:28:50.355Z,5.9
2022-09-21T02:38:52.116Z,5.8
2022-09-21T02:48:54.768Z,5.7
2022-09-21T02:58:56.564Z,5.6
2022-09-21T03:08:58.614Z,5.5
2022-09-21T03:19:00.535Z,5.4
2022-09-21T03:29:02.954Z,5.4
2022-09-21T03:39:04.644Z,5.2
2022-09-21T03:49:06.448Z,5.1
2022-09-21T03:59:13.283Z,5.1
2022-09-21T04:09:10.755Z,5
2022-09-21T04:19:13.147Z,5
2022-09-21T04:29:15.458Z,4.9
2022-09-21T04:39:17.873Z,4.9
2022-09-21T04:49:19.962Z,4.8
2022-09-21T04:59:21.938Z,4.7
2022-09-21T05:09:24.212Z,4.7
2022-09-21T05:19:26.777Z,4.6
2022-09-21T05:29:28.720Z,4.7
2022-09-21T05:39:31.071Z,4.7
2022-09-21T05:49:33.549Z,4.7
2022-09-21T05:59:36.070Z,4.8
2022-09-21T06:09:42.492Z,5
2022-09-21T06:19:40.246Z,5.5
2022-09-21T06:29:42.655Z,5.8
2022-09-21T06:39:44.732Z,6.2
2022-09-21T06:49:46.752Z,6.5
2022-09-21T06:59:48.879Z,7.1
2022-09-21T07:10:07.107Z,8.2
2022-09-21T07:19:53.398Z,9.4
2022-09-21T07:29:55.880Z,9.9
2022-09-21T07:39:58.054Z,10.3
2022-09-21T07:50:00.334Z,11.4
2022-09-21T08:00:02.211Z,11.5
2022-09-21T08:10:04.109Z,11.9
2022-09-21T08:10:11.042Z,11.9
2022-09-21T08:20:13.454Z,12.4
2022-09-21T08:30:15.391Z,13.2
2022-09-21T08:40:17.250Z,12.9
2022-09-21T08:50:19.018Z,13.1
2022-09-21T09:00:21.140Z,13.3
2022-09-21T09:10:23.369Z,13.7
2022-09-21T09:20:26.091Z,14
2022-09-21T09:30:27.671Z,13.8
2022-09-21T09:40:29.500Z,14
2022-09-21T09:50:31.298Z,14.1
2022-09-21T10:10:35.745Z,14.2
2022-09-21T10:20:38.294Z,14.4
2022-09-21T10:30:40.924Z,14.4
2022-09-21T10:40:42.867Z,14.5
2022-09-21T10:50:44.948Z,14.8
2022-09-21T11:00:47.559Z,15.3
2022-09-21T11:20:52.008Z,14.9
2022-09-21T11:50:57.773Z,16.1
2022-09-21T12:31:06.424Z,16
2022-09-21T13:01:13.104Z,16.3
2022-09-21T13:11:14.799Z,16.5
2022-09-21T13:21:16.694Z,16.6
2022-09-21T13:31:36.966Z,16.9
2022-09-21T13:41:21.639Z,16.5
2022-09-21T13:51:23.307Z,16.7
2022-09-21T14:01:45.558Z,17.1
2022-09-21T14:11:27.973Z,18.3
2022-09-21T14:21:30.071Z,18
2022-09-21T14:31:32.570Z,17.7
2022-09-21T15:01:40.244Z,18.1
2022-09-21T15:21:44.661Z,17.4
2022-09-21T15:41:48.494Z,16.7
2022-09-21T15:51:50.180Z,16
2022-09-21T16:01:52.046Z,15.6
2022-09-21T16:11:54.291Z,15.8
2022-09-21T16:21:56.871Z,16.1
2022-09-21T16:31:58.831Z,16.4
2022-09-21T16:42:00.773Z,16.5
2022-09-21T17:02:04.902Z,15.4
2022-09-21T18:12:20.800Z,12.3
2022-09-21T18:22:23.310Z,12
2022-09-21T19:12:34.246Z,10.8
2022-09-21T19:22:36.629Z,10.7
2022-09-21T19:52:42.762Z,10.2
2022-09-21T20:02:45.377Z,10
2022-09-21T20:12:47.726Z,9.8
2022-09-21T20:22:49.461Z,9.7
2022-09-21T20:32:52.104Z,9.4
2022-09-21T20:42:53.995Z,9.2
2022-09-21T20:52:55.803Z,9.1
2022-09-21T21:02:57.516Z,8.9
2022-09-21T21:12:59.395Z,8.8
2022-09-21T21:23:04.575Z,8.7
2022-09-21T21:33:03.076Z,8.5
2022-09-21T22:03:09.486Z,8.2
2022-09-21T23:23:26.715Z,7.2
2022-09-21T23:43:30.853Z,6.9
